Gillette, WY

9:04 AM MDT on July 12, 2014 (GMT -0600)
Gillette-Campbell County (KGCC) Elev 4364 ft | 44.34 °N, 105.54 °W | Change Station

Current weather conditions updated 11 minutes ago

Clear
Clear
70 °F
Feels Like 70 °F
N
4
Wind Variable Wind from SW

Today is forecast to be Cooler than yesterday.

Today
High -- | Low -- °F
--% Chance of Precip.
Yesterday
High -- | Low -- °F
Precip. -- in
5:29 AM 8:46 PM
Full, 100% visible
Pressure 30.10 in
Visibility 10.0 miles
Clouds Clear
Dew Point 57 °F
Humidity 63%
Rainfall 0.00 in
Snow Depth Not available.
UV 4 out of 12
Pollen 4.50 out of 12
Air Quality Not available.
Flu Activity Sporadic
METAR KGCC 121453Z AUTO 23003KT 10SM CLR 21/14 A3022 RMK AO2 SLP192 T02110139 51011 $

More Conditions Fewer Conditions

Pressure 30.10 in
Visibility 10.0 miles
Clouds Clear
Dew Point 57 °F
Humidity 63%
Rainfall 0.00 in
Snow Depth Not available.
UV 4 out of 12
Pollen 4.50 out of 12
Air Quality Not available.
Flu Activity Sporadic
METAR KGCC 121453Z AUTO 23003KT 10SM CLR 21/14 A3022 RMK AO2 SLP192 T02110139 51011 $

More Conditions Fewer Conditions

10-Day Weather Forecast

Almanac

Astronomy

Jul. 12, 2014 Rise Set
Actual Time 5:29 AM MDT 8:46 PM MDT
Civil Twilight 4:53 AM MDT 9:22 PM MDT
Nautical Twilight 4:06 AM MDT 10:09 PM MDT
Astronomical Twilight 3:08 AM MDT 11:06 PM MDT
Moon 8:46 PM MDT 5:55 AM MDT
Length of Visible Light 16h 29m
Length of Day
15h 17m
Tomorrow will be 1m 29s shorter.
Full, 100% of the Moon is Illuminated
Today
Full
Jul 18
Last Quarter
Jul 26
New
Aug 3
First Quarter
Aug 10
Full

Today's Extremes

State Highs State Lows

Community

WunderPhotos

Upload Photos

1,732,848 photos uploaded!

WunderBlogs® & News

By Dr. Jeff Masters
Director of Meteorology, Weather Underground
By Kari Strenfel
Meteorologist, Weather Underground
By Christopher C. Burt
Weather Historian, Weather Underground
July 12, 2014
July 12, 2014
July 12, 2014

Nearby

Snow Depth

Station Depth Elevation
Casper Mountain 1 in 7850 ft
Reno Hill 0 in 8500 ft
Townsend Creek 2 in 8700 ft
Burroughs Creek 0 in 8750 ft
Sand Lake 0 in 10050 ft

Earthquake Activity

City Distance Mag. Time & Date
No recent earthquake activity has been reported nearby.
Minimum magnitude displayed is 2.5.

Coastal Water Temperatures

Place Temperature
No Stations Reporting

Nearby Weather Stations

Station Location Temp. Dew Point Humidity Wind Precip. Elev Updated Type
RAWS ECHETA WY, Gillette, WY 65 °F 58 °F 78% NNW  at  3 mph 0.00 in / hr 4396 ft 7:51 AM MDT MADIS
(North Gillette), Gillette, WY 67.5 °F 62 °F 82% WSW  at  0.0 mph 0.00 in / hr 4610 ft 9:04 AM MDT Rapid Fire

Show More Stations Show Fewer Stations